sensor_id;sensor_type;location;lat;lon;timestamp;P1;durP1;ratioP1;P2;durP2;ratioP2
67819;SDS011;54618;52.018;5.576;2024-02-26T00:01:26;5.40;;;3.17;;
67819;SDS011;54618;52.018;5.576;2024-02-26T00:03:52;5.38;;;2.95;;
67819;SDS011;54618;52.018;5.576;2024-02-26T00:06:19;6.18;;;2.83;;
67819;SDS011;54618;52.018;5.576;2024-02-26T00:08:44;5.95;;;2.92;;
67819;SDS011;54618;52.018;5.576;2024-02-26T00:11:10;5.25;;;3.42;;
67819;SDS011;54618;52.018;5.576;2024-02-26T00:13:36;5.15;;;2.80;;
67819;SDS011;54618;52.018;5.576;2024-02-26T00:16:02;6.15;;;3.10;;
67819;SDS011;54618;52.018;5.576;2024-02-26T00:18:29;6.43;;;3.08;;
67819;SDS011;54618;52.018;5.576;2024-02-26T00:20:54;4.85;;;2.95;;
67819;SDS011;54618;52.018;5.576;2024-02-26T00:23:20;4.88;;;2.97;;
67819;SDS011;54618;52.018;5.576;2024-02-26T00:25:46;5.70;;;3.15;;
67819;SDS011;54618;52.018;5.576;2024-02-26T00:28:11;9.27;;;3.55;;
67819;SDS011;54618;52.018;5.576;2024-02-26T00:30:38;4.90;;;2.88;;
67819;SDS011;54618;52.018;5.576;2024-02-26T00:33:04;5.30;;;3.00;;
67819;SDS011;54618;52.018;5.576;2024-02-26T00:35:29;5.35;;;3.13;;
67819;SDS011;54618;52.018;5.576;2024-02-26T00:37:57;7.00;;;3.30;;
67819;SDS011;54618;52.018;5.576;2024-02-26T00:40:23;5.65;;;3.25;;
67819;SDS011;54618;52.018;5.576;2024-02-26T00:42:49;5.80;;;3.30;;
67819;SDS011;54618;52.018;5.576;2024-02-26T00:45:15;5.80;;;3.00;;
67819;SDS011;54618;52.018;5.576;2024-02-26T00:47:41;6.00;;;3.15;;
67819;SDS011;54618;52.018;5.576;2024-02-26T00:50:07;5.40;;;3.20;;
67819;SDS011;54618;52.018;5.576;2024-02-26T00:52:33;5.40;;;3.10;;
67819;SDS011;54618;52.018;5.576;2024-02-26T00:54:59;5.63;;;3.33;;
67819;SDS011;54618;52.018;5.576;2024-02-26T00:57:28;7.55;;;3.50;;
67819;SDS011;54618;52.018;5.576;2024-02-26T00:59:54;6.88;;;3.67;;
67819;SDS011;54618;52.018;5.576;2024-02-26T01:02:21;6.45;;;3.53;;
67819;SDS011;54618;52.018;5.576;2024-02-26T01:04:47;6.43;;;3.15;;
67819;SDS011;54618;52.018;5.576;2024-02-26T01:07:13;4.30;;;3.25;;
67819;SDS011;54618;52.018;5.576;2024-02-26T01:09:39;5.28;;;3.10;;
67819;SDS011;54618;52.018;5.576;2024-02-26T01:12:04;4.80;;;2.90;;
67819;SDS011;54618;52.018;5.576;2024-02-26T01:14:30;5.43;;;3.10;;
67819;SDS011;54618;52.018;5.576;2024-02-26T01:16:59;6.18;;;3.13;;
67819;SDS011;54618;52.018;5.576;2024-02-26T01:19:24;6.72;;;3.13;;
67819;SDS011;54618;52.018;5.576;2024-02-26T01:21:53;4.82;;;3.33;;
67819;SDS011;54618;52.018;5.576;2024-02-26T01:24:19;5.35;;;3.25;;
67819;SDS011;54618;52.018;5.576;2024-02-26T01:26:44;5.72;;;3.17;;
67819;SDS011;54618;52.018;5.576;2024-02-26T01:29:10;6.88;;;3.42;;
67819;SDS011;54618;52.018;5.576;2024-02-26T01:31:35;7.57;;;3.10;;
67819;SDS011;54618;52.018;5.576;2024-02-26T01:34:01;4.85;;;3.40;;
67819;SDS011;54618;52.018;5.576;2024-02-26T01:36:29;4.93;;;3.10;;
67819;SDS011;54618;52.018;5.576;2024-02-26T01:38:58;5.78;;;3.53;;
67819;SDS011;54618;52.018;5.576;2024-02-26T01:41:23;6.13;;;3.47;;
67819;SDS011;54618;52.018;5.576;2024-02-26T01:43:49;6.15;;;3.38;;
67819;SDS011;54618;52.018;5.576;2024-02-26T01:46:15;5.65;;;3.50;;
67819;SDS011;54618;52.018;5.576;2024-02-26T01:48:42;5.13;;;3.10;;
67819;SDS011;54618;52.018;5.576;2024-02-26T01:51:10;6.30;;;3.50;;
67819;SDS011;54618;52.018;5.576;2024-02-26T01:53:37;5.85;;;3.70;;
67819;SDS011;54618;52.018;5.576;2024-02-26T01:56:03;6.03;;;3.40;;
67819;SDS011;54618;52.018;5.576;2024-02-26T01:58:29;6.28;;;3.20;;
67819;SDS011;54618;52.018;5.576;2024-02-26T02:00:56;5.53;;;3.03;;
67819;SDS011;54618;52.018;5.576;2024-02-26T02:03:22;5.38;;;3.42;;
67819;SDS011;54618;52.018;5.576;2024-02-26T02:05:48;5.60;;;3.60;;
67819;SDS011;54618;52.018;5.576;2024-02-26T02:08:14;5.93;;;3.70;;
67819;SDS011;54618;52.018;5.576;2024-02-26T02:10:41;7.30;;;4.18;;
67819;SDS011;54618;52.018;5.576;2024-02-26T02:13:07;6.85;;;3.67;;
67819;SDS011;54618;52.018;5.576;2024-02-26T02:15:33;7.20;;;3.80;;
67819;SDS011;54618;52.018;5.576;2024-02-26T02:17:58;7.00;;;4.43;;
67819;SDS011;54618;52.018;5.576;2024-02-26T02:20:25;5.90;;;3.90;;
67819;SDS011;54618;52.018;5.576;2024-02-26T02:23:00;6.63;;;3.95;;
67819;SDS011;54618;52.018;5.576;2024-02-26T02:25:29;7.60;;;4.35;;
67819;SDS011;54618;52.018;5.576;2024-02-26T02:27:55;6.18;;;3.95;;
67819;SDS011;54618;52.018;5.576;2024-02-26T02:30:24;8.18;;;3.78;;
67819;SDS011;54618;52.018;5.576;2024-02-26T02:32:52;6.50;;;3.92;;
67819;SDS011;54618;52.018;5.576;2024-02-26T02:35:19;6.90;;;4.00;;
67819;SDS011;54618;52.018;5.576;2024-02-26T02:37:44;7.07;;;4.28;;
67819;SDS011;54618;52.018;5.576;2024-02-26T02:40:10;7.22;;;4.30;;
67819;SDS011;54618;52.018;5.576;2024-02-26T02:42:36;6.13;;;3.80;;
67819;SDS011;54618;52.018;5.576;2024-02-26T02:45:01;6.38;;;3.92;;
67819;SDS011;54618;52.018;5.576;2024-02-26T02:47:27;6.60;;;4.10;;
67819;SDS011;54618;52.018;5.576;2024-02-26T02:49:52;7.03;;;3.63;;
67819;SDS011;54618;52.018;5.576;2024-02-26T02:52:18;8.75;;;3.88;;
67819;SDS011;54618;52.018;5.576;2024-02-26T02:54:43;7.97;;;4.10;;
67819;SDS011;54618;52.018;5.576;2024-02-26T02:57:09;7.55;;;3.95;;
67819;SDS011;54618;52.018;5.576;2024-02-26T02:59:35;6.57;;;4.00;;
67819;SDS011;54618;52.018;5.576;2024-02-26T03:02:01;7.75;;;4.45;;
67819;SDS011;54618;52.018;5.576;2024-02-26T03:04:27;6.13;;;4.05;;
67819;SDS011;54618;52.018;5.576;2024-02-26T03:06:54;8.65;;;4.63;;
67819;SDS011;54618;52.018;5.576;2024-02-26T03:09:20;9.15;;;4.07;;
67819;SDS011;54618;52.018;5.576;2024-02-26T03:11:45;7.15;;;4.22;;
67819;SDS011;54618;52.018;5.576;2024-02-26T03:14:11;6.75;;;4.20;;
67819;SDS011;54618;52.018;5.576;2024-02-26T03:16:37;6.53;;;4.20;;
67819;SDS011;54618;52.018;5.576;2024-02-26T03:19:02;7.30;;;3.83;;
67819;SDS011;54618;52.018;5.576;2024-02-26T03:21:28;7.03;;;4.20;;
67819;SDS011;54618;52.018;5.576;2024-02-26T03:23:54;6.72;;;4.00;;
67819;SDS011;54618;52.018;5.576;2024-02-26T03:26:19;8.05;;;4.20;;
67819;SDS011;54618;52.018;5.576;2024-02-26T03:28:46;6.05;;;3.70;;
67819;SDS011;54618;52.018;5.576;2024-02-26T03:31:12;7.85;;;3.92;;
67819;SDS011;54618;52.018;5.576;2024-02-26T03:33:38;8.38;;;4.15;;
67819;SDS011;54618;52.018;5.576;2024-02-26T03:36:03;6.65;;;3.65;;
67819;SDS011;54618;52.018;5.576;2024-02-26T03:38:30;6.68;;;3.90;;
67819;SDS011;54618;52.018;5.576;2024-02-26T03:40:56;6.90;;;3.53;;
67819;SDS011;54618;52.018;5.576;2024-02-26T03:43:24;8.10;;;4.13;;
67819;SDS011;54618;52.018;5.576;2024-02-26T03:45:50;6.03;;;3.80;;
67819;SDS011;54618;52.018;5.576;2024-02-26T03:48:16;7.38;;;4.00;;
67819;SDS011;54618;52.018;5.576;2024-02-26T03:50:41;9.82;;;4.10;;
67819;SDS011;54618;52.018;5.576;2024-02-26T03:53:07;5.43;;;3.30;;
67819;SDS011;54618;52.018;5.576;2024-02-26T03:55:34;7.25;;;3.47;;
67819;SDS011;54618;52.018;5.576;2024-02-26T03:58:00;6.25;;;3.88;;
67819;SDS011;54618;52.018;5.576;2024-02-26T04:00:26;7.38;;;3.97;;
67819;SDS011;54618;52.018;5.576;2024-02-26T04:02:54;6.97;;;4.00;;
67819;SDS011;54618;52.018;5.576;2024-02-26T04:05:19;8.15;;;4.07;;
67819;SDS011;54618;52.018;5.576;2024-02-26T04:07:45;8.77;;;4.13;;
67819;SDS011;54618;52.018;5.576;2024-02-26T04:10:11;7.35;;;4.18;;
67819;SDS011;54618;52.018;5.576;2024-02-26T04:12:40;7.15;;;4.13;;
67819;SDS011;54618;52.018;5.576;2024-02-26T04:15:07;7.75;;;4.45;;
67819;SDS011;54618;52.018;5.576;2024-02-26T04:17:34;7.97;;;4.25;;
67819;SDS011;54618;52.018;5.576;2024-02-26T04:19:59;8.15;;;4.85;;
67819;SDS011;54618;52.018;5.576;2024-02-26T04:22:25;7.03;;;3.88;;
67819;SDS011;54618;52.018;5.576;2024-02-26T04:24:51;7.38;;;4.45;;
67819;SDS011;54618;52.018;5.576;2024-02-26T04:27:17;8.90;;;5.05;;
67819;SDS011;54618;52.018;5.576;2024-02-26T04:29:43;9.60;;;5.15;;
67819;SDS011;54618;52.018;5.576;2024-02-26T04:32:08;8.27;;;5.07;;
67819;SDS011;54618;52.018;5.576;2024-02-26T04:34:34;11.45;;;5.65;;
67819;SDS011;54618;52.018;5.576;2024-02-26T04:37:00;10.38;;;5.00;;
67819;SDS011;54618;52.018;5.576;2024-02-26T04:39:25;10.07;;;4.30;;
67819;SDS011;54618;52.018;5.576;2024-02-26T04:41:51;8.88;;;4.82;;
67819;SDS011;54618;52.018;5.576;2024-02-26T04:44:16;10.10;;;4.78;;
67819;SDS011;54618;52.018;5.576;2024-02-26T04:46:42;9.35;;;4.82;;
67819;SDS011;54618;52.018;5.576;2024-02-26T04:49:08;10.63;;;5.30;;
67819;SDS011;54618;52.018;5.576;2024-02-26T04:51:34;8.10;;;4.68;;
67819;SDS011;54618;52.018;5.576;2024-02-26T04:53:59;9.73;;;4.88;;
67819;SDS011;54618;52.018;5.576;2024-02-26T04:56:25;9.10;;;4.70;;
67819;SDS011;54618;52.018;5.576;2024-02-26T04:58:51;9.60;;;4.97;;
67819;SDS011;54618;52.018;5.576;2024-02-26T05:01:17;11.52;;;5.45;;
67819;SDS011;54618;52.018;5.576;2024-02-26T05:03:43;8.60;;;4.78;;
67819;SDS011;54618;52.018;5.576;2024-02-26T05:06:09;8.45;;;4.82;;
67819;SDS011;54618;52.018;5.576;2024-02-26T05:08:35;7.88;;;4.40;;
67819;SDS011;54618;52.018;5.576;2024-02-26T05:11:04;7.50;;;3.97;;
67819;SDS011;54618;52.018;5.576;2024-02-26T05:13:30;9.98;;;4.65;;
67819;SDS011;54618;52.018;5.576;2024-02-26T05:15:56;6.95;;;4.25;;
67819;SDS011;54618;52.018;5.576;2024-02-26T05:18:23;8.88;;;4.65;;
67819;SDS011;54618;52.018;5.576;2024-02-26T05:20:49;7.57;;;4.53;;
67819;SDS011;54618;52.018;5.576;2024-02-26T05:23:15;7.85;;;4.35;;
67819;SDS011;54618;52.018;5.576;2024-02-26T05:25:41;8.55;;;4.03;;
67819;SDS011;54618;52.018;5.576;2024-02-26T05:28:06;7.63;;;4.32;;
67819;SDS011;54618;52.018;5.576;2024-02-26T05:30:32;7.95;;;4.00;;
67819;SDS011;54618;52.018;5.576;2024-02-26T05:32:58;7.05;;;4.05;;
67819;SDS011;54618;52.018;5.576;2024-02-26T05:35:24;8.25;;;4.80;;
67819;SDS011;54618;52.018;5.576;2024-02-26T05:37:51;7.72;;;4.30;;
67819;SDS011;54618;52.018;5.576;2024-02-26T05:40:16;7.95;;;4.45;;
67819;SDS011;54618;52.018;5.576;2024-02-26T05:42:42;6.97;;;4.22;;
67819;SDS011;54618;52.018;5.576;2024-02-26T05:45:10;8.15;;;4.10;;
67819;SDS011;54618;52.018;5.576;2024-02-26T05:47:35;7.75;;;3.90;;
67819;SDS011;54618;52.018;5.576;2024-02-26T05:50:01;9.10;;;4.47;;
67819;SDS011;54618;52.018;5.576;2024-02-26T05:52:27;6.63;;;3.22;;
67819;SDS011;54618;52.018;5.576;2024-02-26T05:54:57;7.28;;;4.00;;
67819;SDS011;54618;52.018;5.576;2024-02-26T05:57:23;6.97;;;3.97;;
67819;SDS011;54618;52.018;5.576;2024-02-26T05:59:49;7.88;;;4.07;;
67819;SDS011;54618;52.018;5.576;2024-02-26T06:02:14;8.13;;;4.32;;
67819;SDS011;54618;52.018;5.576;2024-02-26T06:04:40;8.13;;;4.25;;
67819;SDS011;54618;52.018;5.576;2024-02-26T06:07:06;9.35;;;4.65;;
67819;SDS011;54618;52.018;5.576;2024-02-26T06:09:31;8.07;;;4.40;;
67819;SDS011;54618;52.018;5.576;2024-02-26T06:12:00;7.97;;;3.88;;
67819;SDS011;54618;52.018;5.576;2024-02-26T06:14:29;7.95;;;4.57;;
67819;SDS011;54618;52.018;5.576;2024-02-26T06:16:54;8.27;;;4.53;;
67819;SDS011;54618;52.018;5.576;2024-02-26T06:19:20;8.75;;;5.13;;
67819;SDS011;54618;52.018;5.576;2024-02-26T06:21:45;8.45;;;5.03;;
67819;SDS011;54618;52.018;5.576;2024-02-26T06:24:11;8.98;;;4.88;;
67819;SDS011;54618;52.018;5.576;2024-02-26T06:26:37;8.30;;;4.40;;
67819;SDS011;54618;52.018;5.576;2024-02-26T06:29:02;9.65;;;4.50;;
67819;SDS011;54618;52.018;5.576;2024-02-26T06:31:28;10.63;;;4.82;;
67819;SDS011;54618;52.018;5.576;2024-02-26T06:33:54;9.10;;;5.30;;
67819;SDS011;54618;52.018;5.576;2024-02-26T06:36:20;8.40;;;4.80;;
67819;SDS011;54618;52.018;5.576;2024-02-26T06:38:46;10.40;;;4.75;;
67819;SDS011;54618;52.018;5.576;2024-02-26T06:41:12;9.93;;;4.85;;
67819;SDS011;54618;52.018;5.576;2024-02-26T06:43:38;8.98;;;4.25;;
67819;SDS011;54618;52.018;5.576;2024-02-26T06:46:03;12.07;;;5.10;;
67819;SDS011;54618;52.018;5.576;2024-02-26T06:48:30;12.52;;;5.70;;
67819;SDS011;54618;52.018;5.576;2024-02-26T06:50:56;11.50;;;5.75;;
67819;SDS011;54618;52.018;5.576;2024-02-26T06:53:24;11.07;;;5.30;;
67819;SDS011;54618;52.018;5.576;2024-02-26T06:55:50;9.45;;;5.13;;
67819;SDS011;54618;52.018;5.576;2024-02-26T06:58:16;9.90;;;5.22;;
67819;SDS011;54618;52.018;5.576;2024-02-26T07:00:42;10.65;;;5.65;;
67819;SDS011;54618;52.018;5.576;2024-02-26T07:03:08;12.02;;;6.03;;
67819;SDS011;54618;52.018;5.576;2024-02-26T07:05:33;11.38;;;5.85;;
67819;SDS011;54618;52.018;5.576;2024-02-26T07:07:59;11.50;;;6.20;;
67819;SDS011;54618;52.018;5.576;2024-02-26T07:10:24;12.52;;;7.03;;
67819;SDS011;54618;52.018;5.576;2024-02-26T07:12:50;13.68;;;7.00;;
67819;SDS011;54618;52.018;5.576;2024-02-26T07:15:15;13.43;;;6.63;;
67819;SDS011;54618;52.018;5.576;2024-02-26T07:17:41;11.25;;;5.53;;
67819;SDS011;54618;52.018;5.576;2024-02-26T07:20:11;15.07;;;7.10;;
67819;SDS011;54618;52.018;5.576;2024-02-26T07:22:37;13.02;;;6.03;;
67819;SDS011;54618;52.018;5.576;2024-02-26T07:25:03;13.93;;;7.00;;
67819;SDS011;54618;52.018;5.576;2024-02-26T07:27:29;11.95;;;6.20;;
67819;SDS011;54618;52.018;5.576;2024-02-26T07:29:55;14.07;;;6.88;;
67819;SDS011;54618;52.018;5.576;2024-02-26T07:32:20;13.63;;;6.68;;
67819;SDS011;54618;52.018;5.576;2024-02-26T07:34:47;13.90;;;6.72;;
67819;SDS011;54618;52.018;5.576;2024-02-26T07:37:12;15.73;;;7.10;;
67819;SDS011;54618;52.018;5.576;2024-02-26T07:39:38;15.20;;;7.40;;
67819;SDS011;54618;52.018;5.576;2024-02-26T07:42:04;14.35;;;6.93;;
67819;SDS011;54618;52.018;5.576;2024-02-26T07:44:30;14.00;;;7.05;;
67819;SDS011;54618;52.018;5.576;2024-02-26T07:46:55;16.92;;;7.45;;
67819;SDS011;54618;52.018;5.576;2024-02-26T07:49:21;13.32;;;6.43;;
67819;SDS011;54618;52.018;5.576;2024-02-26T07:51:46;11.50;;;6.28;;
67819;SDS011;54618;52.018;5.576;2024-02-26T07:54:12;15.60;;;7.63;;
67819;SDS011;54618;52.018;5.576;2024-02-26T07:56:38;16.38;;;7.60;;
67819;SDS011;54618;52.018;5.576;2024-02-26T07:59:03;16.70;;;7.47;;
67819;SDS011;54618;52.018;5.576;2024-02-26T08:01:29;21.23;;;8.55;;
67819;SDS011;54618;52.018;5.576;2024-02-26T08:03:54;20.30;;;8.82;;
67819;SDS011;54618;52.018;5.576;2024-02-26T08:06:20;16.98;;;7.75;;
67819;SDS011;54618;52.018;5.576;2024-02-26T08:08:46;15.10;;;7.32;;
67819;SDS011;54618;52.018;5.576;2024-02-26T08:11:14;20.48;;;8.45;;
67819;SDS011;54618;52.018;5.576;2024-02-26T08:13:40;18.38;;;9.00;;
67819;SDS011;54618;52.018;5.576;2024-02-26T08:16:06;20.88;;;8.93;;
67819;SDS011;54618;52.018;5.576;2024-02-26T08:18:32;18.77;;;8.13;;
67819;SDS011;54618;52.018;5.576;2024-02-26T08:21:00;19.52;;;8.55;;
67819;SDS011;54618;52.018;5.576;2024-02-26T08:23:29;19.75;;;7.85;;
67819;SDS011;54618;52.018;5.576;2024-02-26T08:25:56;19.20;;;7.68;;
67819;SDS011;54618;52.018;5.576;2024-02-26T08:28:24;19.85;;;9.35;;
67819;SDS011;54618;52.018;5.576;2024-02-26T08:30:50;20.08;;;9.32;;
67819;SDS011;54618;52.018;5.576;2024-02-26T08:33:15;18.27;;;8.43;;
67819;SDS011;54618;52.018;5.576;2024-02-26T08:35:41;18.85;;;8.68;;
67819;SDS011;54618;52.018;5.576;2024-02-26T08:38:06;19.10;;;7.95;;
67819;SDS011;54618;52.018;5.576;2024-02-26T08:40:32;19.65;;;8.75;;
67819;SDS011;54618;52.018;5.576;2024-02-26T08:42:57;20.70;;;9.27;;
67819;SDS011;54618;52.018;5.576;2024-02-26T08:45:23;17.80;;;7.82;;
67819;SDS011;54618;52.018;5.576;2024-02-26T08:47:49;18.83;;;9.13;;
67819;SDS011;54618;52.018;5.576;2024-02-26T08:50:15;16.85;;;7.82;;
67819;SDS011;54618;52.018;5.576;2024-02-26T08:52:40;17.80;;;8.70;;
67819;SDS011;54618;52.018;5.576;2024-02-26T08:55:06;18.00;;;8.88;;
67819;SDS011;54618;52.018;5.576;2024-02-26T08:57:33;17.85;;;8.00;;
67819;SDS011;54618;52.018;5.576;2024-02-26T09:00:00;15.98;;;7.45;;
67819;SDS011;54618;52.018;5.576;2024-02-26T09:02:26;16.10;;;7.78;;
67819;SDS011;54618;52.018;5.576;2024-02-26T09:04:52;16.50;;;7.20;;
67819;SDS011;54618;52.018;5.576;2024-02-26T09:07:20;15.38;;;7.80;;
67819;SDS011;54618;52.018;5.576;2024-02-26T09:09:46;15.07;;;6.97;;
67819;SDS011;54618;52.018;5.576;2024-02-26T09:12:11;15.73;;;7.28;;
67819;SDS011;54618;52.018;5.576;2024-02-26T09:14:37;15.63;;;7.95;;
67819;SDS011;54618;52.018;5.576;2024-02-26T09:17:03;14.18;;;6.72;;
67819;SDS011;54618;52.018;5.576;2024-02-26T09:19:28;15.10;;;6.63;;
67819;SDS011;54618;52.018;5.576;2024-02-26T09:21:54;13.48;;;6.38;;
67819;SDS011;54618;52.018;5.576;2024-02-26T09:24:23;15.60;;;6.63;;
67819;SDS011;54618;52.018;5.576;2024-02-26T09:26:49;15.38;;;7.18;;
67819;SDS011;54618;52.018;5.576;2024-02-26T09:29:15;13.05;;;6.03;;
67819;SDS011;54618;52.018;5.576;2024-02-26T09:31:41;14.70;;;6.53;;
67819;SDS011;54618;52.018;5.576;2024-02-26T09:34:07;14.15;;;5.82;;
67819;SDS011;54618;52.018;5.576;2024-02-26T09:36:33;10.77;;;5.80;;
67819;SDS011;54618;52.018;5.576;2024-02-26T09:38:59;14.55;;;6.68;;
67819;SDS011;54618;52.018;5.576;2024-02-26T09:41:24;12.05;;;6.15;;
67819;SDS011;54618;52.018;5.576;2024-02-26T09:43:58;10.60;;;5.25;;
67819;SDS011;54618;52.018;5.576;2024-02-26T09:46:28;12.50;;;5.82;;
67819;SDS011;54618;52.018;5.576;2024-02-26T09:48:54;15.27;;;6.50;;
67819;SDS011;54618;52.018;5.576;2024-02-26T09:51:20;11.25;;;6.10;;
67819;SDS011;54618;52.018;5.576;2024-02-26T09:53:53;11.25;;;5.55;;
67819;SDS011;54618;52.018;5.576;2024-02-26T09:56:24;13.20;;;6.00;;
67819;SDS011;54618;52.018;5.576;2024-02-26T09:58:50;13.40;;;6.10;;
67819;SDS011;54618;52.018;5.576;2024-02-26T10:01:19;11.82;;;5.50;;
67819;SDS011;54618;52.018;5.576;2024-02-26T10:03:46;10.25;;;5.05;;
67819;SDS011;54618;52.018;5.576;2024-02-26T10:06:17;13.00;;;5.93;;
67819;SDS011;54618;52.018;5.576;2024-02-26T10:08:43;10.85;;;5.55;;
67819;SDS011;54618;52.018;5.576;2024-02-26T10:11:09;11.02;;;5.82;;
67819;SDS011;54618;52.018;5.576;2024-02-26T10:13:35;9.93;;;4.82;;
67819;SDS011;54618;52.018;5.576;2024-02-26T10:16:01;11.57;;;5.63;;
67819;SDS011;54618;52.018;5.576;2024-02-26T10:18:44;10.35;;;5.38;;
67819;SDS011;54618;52.018;5.576;2024-02-26T10:21:19;9.20;;;4.55;;
67819;SDS011;54618;52.018;5.576;2024-02-26T10:23:46;11.15;;;5.50;;
67819;SDS011;54618;52.018;5.576;2024-02-26T10:26:19;11.43;;;6.03;;
67819;SDS011;54618;52.018;5.576;2024-02-26T10:28:45;13.45;;;5.90;;
67819;SDS011;54618;52.018;5.576;2024-02-26T10:31:11;9.88;;;5.00;;
67819;SDS011;54618;52.018;5.576;2024-02-26T10:33:39;9.57;;;4.85;;
67819;SDS011;54618;52.018;5.576;2024-02-26T10:36:06;9.93;;;5.47;;
67819;SDS011;54618;52.018;5.576;2024-02-26T10:38:33;11.55;;;6.05;;
67819;SDS011;54618;52.018;5.576;2024-02-26T10:40:59;10.95;;;5.57;;
67819;SDS011;54618;52.018;5.576;2024-02-26T10:43:27;8.88;;;5.05;;
67819;SDS011;54618;52.018;5.576;2024-02-26T10:45:56;11.68;;;5.30;;
67819;SDS011;54618;52.018;5.576;2024-02-26T10:48:25;13.40;;;6.18;;
67819;SDS011;54618;52.018;5.576;2024-02-26T10:50:54;11.27;;;5.88;;
67819;SDS011;54618;52.018;5.576;2024-02-26T10:53:21;9.68;;;5.22;;
67819;SDS011;54618;52.018;5.576;2024-02-26T10:55:58;9.85;;;5.18;;
67819;SDS011;54618;52.018;5.576;2024-02-26T10:58:28;11.23;;;5.47;;
67819;SDS011;54618;52.018;5.576;2024-02-26T11:00:55;12.23;;;5.85;;
67819;SDS011;54618;52.018;5.576;2024-02-26T11:03:25;10.20;;;5.43;;
67819;SDS011;54618;52.018;5.576;2024-02-26T11:05:51;10.80;;;5.63;;
67819;SDS011;54618;52.018;5.576;2024-02-26T11:08:18;10.13;;;4.97;;
67819;SDS011;54618;52.018;5.576;2024-02-26T11:10:48;10.15;;;5.43;;
67819;SDS011;54618;52.018;5.576;2024-02-26T11:13:18;9.02;;;4.35;;
67819;SDS011;54618;52.018;5.576;2024-02-26T11:15:45;9.50;;;5.13;;
67819;SDS011;54618;52.018;5.576;2024-02-26T11:18:13;9.63;;;4.70;;
67819;SDS011;54618;52.018;5.576;2024-02-26T11:20:40;8.48;;;4.65;;
67819;SDS011;54618;52.018;5.576;2024-02-26T11:23:07;9.10;;;4.25;;
67819;SDS011;54618;52.018;5.576;2024-02-26T11:25:34;8.77;;;4.68;;
67819;SDS011;54618;52.018;5.576;2024-02-26T11:28:01;11.30;;;5.07;;
67819;SDS011;54618;52.018;5.576;2024-02-26T11:30:31;9.68;;;5.45;;
67819;SDS011;54618;52.018;5.576;2024-02-26T11:33:01;8.77;;;4.60;;
67819;SDS011;54618;52.018;5.576;2024-02-26T11:35:29;10.35;;;4.43;;
67819;SDS011;54618;52.018;5.576;2024-02-26T11:37:55;10.15;;;5.22;;
67819;SDS011;54618;52.018;5.576;2024-02-26T11:40:26;12.00;;;5.38;;
67819;SDS011;54618;52.018;5.576;2024-02-26T11:42:56;8.88;;;3.95;;
67819;SDS011;54618;52.018;5.576;2024-02-26T11:48:19;9.02;;;4.65;;
67819;SDS011;54618;52.018;5.576;2024-02-26T11:50:50;9.20;;;4.72;;
67819;SDS011;54618;52.018;5.576;2024-02-26T11:58:44;9.57;;;4.75;;
67819;SDS011;54618;52.018;5.576;2024-02-26T12:04:05;7.78;;;4.38;;
67819;SDS011;54618;52.018;5.576;2024-02-26T12:06:50;10.20;;;5.00;;
67819;SDS011;54618;52.018;5.576;2024-02-26T12:09:39;11.13;;;4.30;;
67819;SDS011;54618;52.018;5.576;2024-02-26T12:12:07;9.73;;;4.45;;
67819;SDS011;54618;52.018;5.576;2024-02-26T12:14:34;10.05;;;4.75;;
67819;SDS011;54618;52.018;5.576;2024-02-26T12:17:03;11.00;;;4.97;;
67819;SDS011;54618;52.018;5.576;2024-02-26T12:19:32;10.93;;;4.53;;
67819;SDS011;54618;52.018;5.576;2024-02-26T12:22:00;9.77;;;4.75;;
67819;SDS011;54618;52.018;5.576;2024-02-26T12:24:25;9.02;;;4.53;;
67819;SDS011;54618;52.018;5.576;2024-02-26T12:26:51;8.63;;;4.05;;
67819;SDS011;54618;52.018;5.576;2024-02-26T12:29:16;11.65;;;4.32;;
67819;SDS011;54618;52.018;5.576;2024-02-26T12:31:42;7.28;;;3.00;;
67819;SDS011;54618;52.018;5.576;2024-02-26T12:34:08;10.40;;;4.30;;
67819;SDS011;54618;52.018;5.576;2024-02-26T12:36:37;8.45;;;4.38;;
67819;SDS011;54618;52.018;5.576;2024-02-26T12:39:03;6.78;;;3.50;;
67819;SDS011;54618;52.018;5.576;2024-02-26T12:41:33;7.07;;;3.67;;
67819;SDS011;54618;52.018;5.576;2024-02-26T12:43:59;9.73;;;3.85;;
67819;SDS011;54618;52.018;5.576;2024-02-26T12:46:25;8.65;;;3.92;;
67819;SDS011;54618;52.018;5.576;2024-02-26T12:48:50;9.50;;;4.40;;
67819;SDS011;54618;52.018;5.576;2024-02-26T12:51:16;8.63;;;4.40;;
67819;SDS011;54618;52.018;5.576;2024-02-26T12:53:43;9.18;;;4.05;;
67819;SDS011;54618;52.018;5.576;2024-02-26T12:56:10;7.45;;;3.70;;
67819;SDS011;54618;52.018;5.576;2024-02-26T12:58:39;8.13;;;4.05;;
67819;SDS011;54618;52.018;5.576;2024-02-26T13:01:06;7.78;;;4.20;;
67819;SDS011;54618;52.018;5.576;2024-02-26T13:03:35;8.82;;;3.75;;
67819;SDS011;54618;52.018;5.576;2024-02-26T13:06:02;6.50;;;3.30;;
67819;SDS011;54618;52.018;5.576;2024-02-26T13:08:28;8.60;;;3.97;;
67819;SDS011;54618;52.018;5.576;2024-02-26T13:10:54;8.20;;;3.88;;
67819;SDS011;54618;52.018;5.576;2024-02-26T13:13:19;8.73;;;4.50;;
67819;SDS011;54618;52.018;5.576;2024-02-26T13:15:45;7.32;;;3.47;;
67819;SDS011;54618;52.018;5.576;2024-02-26T13:18:11;7.72;;;3.90;;
67819;SDS011;54618;52.018;5.576;2024-02-26T13:20:41;7.70;;;4.03;;
67819;SDS011;54618;52.018;5.576;2024-02-26T13:23:08;8.38;;;4.28;;
67819;SDS011;54618;52.018;5.576;2024-02-26T13:25:38;7.95;;;3.80;;
67819;SDS011;54618;52.018;5.576;2024-02-26T13:28:12;8.27;;;4.15;;
67819;SDS011;54618;52.018;5.576;2024-02-26T13:30:41;7.00;;;3.90;;
67819;SDS011;54618;52.018;5.576;2024-02-26T13:33:10;7.38;;;4.03;;
67819;SDS011;54618;52.018;5.576;2024-02-26T13:35:36;7.00;;;3.97;;
67819;SDS011;54618;52.018;5.576;2024-02-26T13:38:04;9.98;;;4.32;;
67819;SDS011;54618;52.018;5.576;2024-02-26T13:40:30;8.32;;;3.72;;
67819;SDS011;54618;52.018;5.576;2024-02-26T13:42:56;8.23;;;4.35;;
67819;SDS011;54618;52.018;5.576;2024-02-26T13:45:22;8.50;;;4.78;;
67819;SDS011;54618;52.018;5.576;2024-02-26T13:47:47;7.13;;;3.63;;
67819;SDS011;54618;52.018;5.576;2024-02-26T13:50:13;8.65;;;4.22;;
67819;SDS011;54618;52.018;5.576;2024-02-26T13:52:38;7.40;;;4.15;;
67819;SDS011;54618;52.018;5.576;2024-02-26T13:55:04;8.02;;;4.15;;
67819;SDS011;54618;52.018;5.576;2024-02-26T13:57:30;6.63;;;3.63;;
67819;SDS011;54618;52.018;5.576;2024-02-26T13:59:56;6.97;;;3.20;;
67819;SDS011;54618;52.018;5.576;2024-02-26T14:02:22;5.07;;;2.42;;
67819;SDS011;54618;52.018;5.576;2024-02-26T14:04:47;10.00;;;4.53;;
67819;SDS011;54618;52.018;5.576;2024-02-26T14:07:13;8.02;;;3.92;;
67819;SDS011;54618;52.018;5.576;2024-02-26T14:09:39;9.52;;;4.18;;
67819;SDS011;54618;52.018;5.576;2024-02-26T14:12:05;9.40;;;3.97;;
67819;SDS011;54618;52.018;5.576;2024-02-26T14:14:30;7.75;;;3.83;;
67819;SDS011;54618;52.018;5.576;2024-02-26T14:17:00;7.93;;;3.85;;
67819;SDS011;54618;52.018;5.576;2024-02-26T14:19:26;7.93;;;4.00;;
67819;SDS011;54618;52.018;5.576;2024-02-26T14:21:52;8.25;;;4.35;;
67819;SDS011;54618;52.018;5.576;2024-02-26T14:24:17;7.88;;;4.30;;
67819;SDS011;54618;52.018;5.576;2024-02-26T14:26:43;7.00;;;3.80;;
67819;SDS011;54618;52.018;5.576;2024-02-26T14:29:08;6.22;;;3.50;;
67819;SDS011;54618;52.018;5.576;2024-02-26T14:31:34;8.30;;;3.78;;
67819;SDS011;54618;52.018;5.576;2024-02-26T14:34:00;7.80;;;4.07;;
67819;SDS011;54618;52.018;5.576;2024-02-26T14:36:25;7.38;;;4.10;;
67819;SDS011;54618;52.018;5.576;2024-02-26T14:38:51;8.85;;;4.25;;
67819;SDS011;54618;52.018;5.576;2024-02-26T14:41:17;8.18;;;4.10;;
67819;SDS011;54618;52.018;5.576;2024-02-26T14:43:42;6.57;;;3.53;;
67819;SDS011;54618;52.018;5.576;2024-02-26T14:46:08;6.85;;;3.50;;
67819;SDS011;54618;52.018;5.576;2024-02-26T14:48:33;8.10;;;3.75;;
67819;SDS011;54618;52.018;5.576;2024-02-26T14:51:00;7.32;;;3.63;;